createdAt,value
2022-09-12T00:01:20.687Z,1.20
2022-09-12T00:03:51.793Z,1.20
2022-09-12T00:06:23.913Z,1.10
2022-09-12T00:08:55.327Z,1.10
2022-09-12T00:11:23.247Z,1.30
2022-09-12T00:13:51.040Z,1.40
2022-09-12T00:16:24.858Z,1.00
2022-09-12T00:18:53.773Z,1.20
2022-09-12T00:21:23.063Z,1.20
2022-09-12T00:23:51.758Z,1.20
2022-09-12T00:26:21.951Z,1.10
2022-09-12T00:28:50.584Z,1.20
2022-09-12T00:31:26.804Z,1.00
2022-09-12T00:33:57.277Z,1.10
2022-09-12T00:36:26.277Z,1.00
2022-09-12T00:38:54.785Z,1.00
2022-09-12T00:41:26.275Z,0.80
2022-09-12T00:43:58.672Z,1.10
2022-09-12T00:46:29.352Z,1.10
2022-09-12T00:49:03.823Z,1.00
2022-09-12T00:51:35.254Z,1.00
2022-09-12T00:54:08.353Z,1.00
2022-09-12T00:56:38.876Z,1.00
2022-09-12T00:59:17.657Z,1.10
2022-09-12T01:01:50.223Z,1.00
2022-09-12T01:04:22.733Z,1.20
2022-09-12T01:06:51.172Z,1.30
2022-09-12T01:09:23.635Z,1.20
2022-09-12T01:11:53.385Z,1.00
2022-09-12T01:14:21.919Z,1.10
2022-09-12T01:16:51.183Z,1.10
2022-09-12T01:19:33.333Z,1.10
2022-09-12T01:22:22.596Z,0.90
2022-09-12T01:24:50.635Z,1.10
2022-09-12T01:27:50.958Z,1.00
2022-09-12T01:30:25.685Z,1.10
2022-09-12T01:33:12.227Z,1.00
2022-09-12T01:35:46.140Z,1.10
2022-09-12T01:38:33.176Z,1.10
2022-09-12T01:41:09.978Z,0.90
2022-09-12T01:44:05.609Z,1.20
2022-09-12T01:46:45.839Z,1.40
2022-09-12T01:49:20.613Z,1.20
2022-09-12T01:52:06.415Z,1.10
2022-09-12T01:54:44.119Z,0.80
2022-09-12T01:57:21.822Z,1.00
2022-09-12T01:59:54.404Z,1.00
2022-09-12T02:02:28.537Z,1.10
2022-09-12T02:05:28.273Z,1.10
2022-09-12T02:08:29.346Z,1.20
2022-09-12T02:11:02.290Z,1.20
2022-09-12T02:13:43.257Z,1.40
2022-09-12T02:16:35.415Z,1.20
2022-09-12T02:19:11.210Z,1.20
2022-09-12T02:21:42.437Z,1.40
2022-09-12T02:24:14.733Z,1.00
2022-09-12T02:26:52.740Z,0.80
2022-09-12T02:29:21.087Z,1.00
2022-09-12T02:31:57.912Z,1.10
2022-09-12T02:34:25.589Z,1.00
2022-09-12T02:36:56.361Z,1.10
2022-09-12T02:39:24.787Z,1.00
2022-09-12T02:41:56.088Z,1.10
2022-09-12T02:44:26.072Z,2.90
2022-09-12T02:47:14.074Z,1.50
2022-09-12T02:49:41.987Z,1.30
2022-09-12T02:52:10.021Z,1.20
2022-09-12T02:54:38.283Z,1.20
2022-09-12T02:57:20.638Z,1.20
2022-09-12T02:59:53.661Z,1.40
2022-09-12T03:02:52.481Z,1.40
2022-09-12T03:05:47.386Z,1.40
2022-09-12T03:08:41.735Z,1.50
2022-09-12T03:11:34.314Z,2.00
2022-09-12T03:14:23.301Z,2.00
2022-09-12T03:17:31.457Z,2.10
2022-09-12T03:20:25.185Z,1.90
2022-09-12T03:23:02.893Z,1.70
2022-09-12T03:25:40.351Z,1.90
2022-09-12T03:28:12.042Z,2.00
2022-09-12T03:30:44.298Z,1.90
2022-09-12T03:33:13.815Z,1.90
2022-09-12T03:35:42.356Z,1.70
2022-09-12T03:38:10.476Z,1.70
2022-09-12T03:40:39.279Z,1.90
2022-09-12T03:43:08.864Z,2.10
2022-09-12T03:45:37.655Z,2.10
2022-09-12T03:48:06.551Z,1.90
2022-09-12T03:50:34.697Z,1.90
2022-09-12T03:53:03.785Z,2.50
2022-09-12T03:55:31.829Z,2.80
2022-09-12T03:57:59.781Z,2.90
2022-09-12T04:00:27.677Z,2.70
2022-09-12T04:02:58.641Z,3.30
2022-09-12T04:05:26.676Z,3.00
2022-09-12T04:07:54.534Z,2.80
2022-09-12T04:10:22.791Z,2.50
2022-09-12T04:12:51.945Z,2.80
2022-09-12T04:15:19.883Z,2.40
2022-09-12T04:17:47.650Z,2.50
2022-09-12T04:20:15.572Z,2.70
2022-09-12T04:22:43.471Z,2.80
2022-09-12T04:25:11.917Z,3.20
2022-09-12T04:27:39.850Z,3.00
2022-09-12T04:30:08.988Z,3.20
2022-09-12T04:32:37.085Z,4.00
2022-09-12T04:35:05.309Z,2.90
2022-09-12T04:37:33.170Z,2.60
2022-09-12T04:40:01.001Z,2.40
2022-09-12T04:42:29.906Z,2.70
2022-09-12T04:44:58.007Z,2.60
2022-09-12T04:47:25.858Z,3.00
2022-09-12T04:49:54.100Z,3.00
2022-09-12T04:52:22.211Z,3.00
2022-09-12T04:54:50.807Z,3.40
2022-09-12T04:57:18.762Z,3.40
2022-09-12T04:59:46.645Z,3.40
2022-09-12T05:02:14.613Z,3.00
2022-09-12T05:04:42.622Z,3.80
2022-09-12T05:07:10.551Z,2.80
2022-09-12T05:09:38.510Z,2.70
2022-09-12T05:12:07.535Z,3.00
2022-09-12T05:14:35.718Z,2.80
2022-09-12T05:17:06.643Z,3.30
2022-09-12T05:19:35.186Z,3.20
2022-09-12T05:22:05.096Z,3.20
2022-09-12T05:24:33.094Z,3.20
2022-09-12T05:27:01.298Z,3.30
2022-09-12T05:29:29.164Z,3.00
2022-09-12T05:31:57.021Z,3.20
2022-09-12T05:34:25.117Z,3.00
2022-09-12T05:36:53.005Z,2.70
2022-09-12T05:39:22.137Z,2.90
2022-09-12T05:41:50.061Z,3.30
2022-09-12T05:44:18.022Z,3.00
2022-09-12T05:46:50.465Z,3.30
2022-09-12T05:49:18.455Z,2.80
2022-09-12T05:51:46.708Z,3.30
2022-09-12T05:54:18.211Z,3.00
2022-09-12T05:56:47.161Z,2.80
2022-09-12T05:59:20.730Z,3.30
2022-09-12T06:01:49.079Z,2.70
2022-09-12T06:04:17.759Z,3.00
2022-09-12T06:06:46.240Z,3.10
2022-09-12T06:09:15.968Z,3.20
2022-09-12T06:11:45.911Z,3.10
2022-09-12T06:14:17.594Z,3.10
2022-09-12T06:16:47.472Z,2.90
2022-09-12T06:19:21.740Z,2.90
2022-09-12T06:21:51.672Z,2.80
2022-09-12T06:24:21.164Z,3.00
2022-09-12T06:26:50.223Z,2.70
2022-09-12T06:29:19.510Z,3.20
2022-09-12T06:31:47.527Z,2.60
2022-09-12T06:34:16.382Z,2.60
2022-09-12T06:36:47.982Z,2.90
2022-09-12T06:39:23.407Z,3.10
2022-09-12T06:41:52.333Z,2.60
2022-09-12T06:44:31.790Z,2.70
2022-09-12T06:46:59.715Z,2.60
2022-09-12T06:49:27.622Z,2.80
2022-09-12T06:51:55.633Z,2.00
2022-09-12T06:54:23.732Z,2.30
2022-09-12T06:56:52.260Z,2.50
2022-09-12T06:59:20.236Z,2.20
2022-09-12T07:01:48.434Z,2.30
2022-09-12T07:04:16.855Z,2.50
2022-09-12T07:06:45.084Z,2.10
2022-09-12T07:09:18.049Z,5.80
2022-09-12T07:11:46.760Z,4.50
2022-09-12T07:14:15.129Z,3.10
2022-09-12T07:16:43.539Z,2.60
2022-09-12T07:19:12.261Z,2.10
2022-09-12T07:21:40.992Z,2.10
2022-09-12T07:24:11.105Z,2.10
2022-09-12T07:26:42.503Z,3.30
2022-09-12T07:32:06.731Z,2.20
2022-09-12T07:34:36.085Z,2.20
2022-09-12T07:37:04.997Z,2.00
2022-09-12T07:39:32.950Z,2.50
2022-09-12T07:42:01.162Z,2.40
2022-09-12T07:44:30.904Z,2.20
2022-09-12T07:46:58.897Z,2.10
2022-09-12T07:49:27.027Z,2.20
2022-09-12T07:51:55.207Z,2.60
2022-09-12T07:54:23.629Z,2.20
2022-09-12T07:56:51.866Z,1.60
2022-09-12T07:59:35.624Z,2.10
2022-09-12T08:02:17.473Z,2.20
2022-09-12T08:04:48.728Z,2.20
2022-09-12T08:07:18.533Z,2.20
2022-09-12T08:09:47.216Z,2.10
2022-09-12T08:12:16.685Z,1.90
2022-09-12T08:14:44.712Z,2.10
2022-09-12T08:17:14.465Z,3.30
2022-09-12T08:19:42.912Z,2.30
2022-09-12T08:22:12.414Z,3.30
2022-09-12T08:24:40.970Z,3.10
2022-09-12T08:27:09.208Z,4.30
2022-09-12T08:29:37.427Z,2.80
2022-09-12T08:32:05.870Z,2.70
2022-09-12T08:34:34.138Z,2.60
2022-09-12T08:37:02.206Z,2.70
2022-09-12T08:39:30.328Z,1.60
2022-09-12T08:42:06.554Z,2.20
2022-09-12T08:44:54.034Z,2.10
2022-09-12T08:47:34.288Z,2.60
2022-09-12T08:50:08.375Z,2.00
2022-09-12T08:52:44.936Z,2.30
2022-09-12T08:55:36.326Z,2.20
2022-09-12T08:58:17.281Z,2.00
2022-09-12T09:01:08.884Z,2.40
2022-09-12T09:04:09.473Z,2.70
2022-09-12T09:06:43.521Z,2.30
2022-09-12T09:09:41.490Z,2.30
2022-09-12T09:12:33.805Z,2.50
2022-09-12T09:15:23.757Z,2.70
2022-09-12T09:17:56.177Z,2.60
2022-09-12T09:20:48.821Z,3.20
2022-09-12T09:23:31.338Z,1.40
2022-09-12T09:26:14.826Z,2.50
2022-09-12T09:28:50.137Z,3.10
2022-09-12T09:31:24.917Z,2.60
2022-09-12T09:33:57.217Z,2.60
2022-09-12T09:36:49.731Z,1.80
2022-09-12T09:39:42.563Z,2.10
2022-09-12T09:42:38.742Z,2.40
2022-09-12T09:45:20.101Z,2.40
2022-09-12T09:48:17.425Z,2.50
2022-09-12T09:50:49.943Z,2.30
2022-09-12T09:53:32.432Z,2.60
2022-09-12T09:56:05.774Z,2.30
2022-09-12T09:58:36.411Z,2.30
2022-09-12T10:01:12.320Z,2.60
2022-09-12T10:03:47.468Z,2.50
2022-09-12T10:06:34.503Z,2.60
2022-09-12T10:09:13.293Z,3.30
2022-09-12T10:11:45.661Z,2.20
2022-09-12T10:14:26.445Z,3.10
2022-09-12T10:16:55.038Z,2.50
2022-09-12T10:19:43.508Z,1.70
2022-09-12T10:22:19.041Z,2.20
2022-09-12T10:24:52.802Z,2.80
2022-09-12T10:27:23.644Z,2.70
2022-09-12T10:30:00.614Z,2.60
2022-09-12T10:32:36.439Z,3.00
2022-09-12T10:35:09.368Z,3.50
2022-09-12T10:37:39.917Z,3.00
2022-09-12T10:40:22.905Z,2.40
2022-09-12T10:42:54.053Z,2.30
2022-09-12T10:45:37.659Z,2.80
2022-09-12T10:48:29.920Z,3.20
2022-09-12T10:51:00.149Z,3.10
2022-09-12T10:53:34.751Z,3.00
2022-09-12T10:56:12.688Z,3.80
2022-09-12T10:59:18.100Z,2.00
2022-09-12T11:02:14.985Z,1.80
2022-09-12T11:05:08.450Z,1.70
2022-09-12T11:07:54.074Z,2.10
2022-09-12T11:10:51.987Z,2.10
2022-09-12T11:13:35.016Z,1.90
2022-09-12T11:16:23.233Z,2.20
2022-09-12T11:19:18.366Z,2.10
2022-09-12T11:22:31.543Z,2.00
2022-09-12T11:25:10.652Z,2.00
2022-09-12T11:28:00.729Z,1.80
2022-09-12T11:30:39.997Z,1.90
2022-09-12T11:33:22.946Z,2.30
2022-09-12T11:35:55.534Z,2.50
2022-09-12T11:38:48.631Z,2.30
2022-09-12T11:41:31.621Z,1.60
2022-09-12T11:44:28.825Z,2.20
2022-09-12T11:46:57.839Z,2.20
2022-09-12T11:49:37.192Z,1.80
2022-09-12T11:52:18.924Z,2.50
2022-09-12T11:55:06.049Z,1.90
2022-09-12T11:57:50.499Z,1.80
2022-09-12T12:00:20.427Z,2.30
2022-09-12T12:02:56.172Z,1.50
2022-09-12T12:05:58.590Z,1.30
2022-09-12T12:08:29.965Z,2.20
2022-09-12T12:11:01.142Z,1.90
2022-09-12T12:13:29.665Z,2.00
2022-09-12T12:16:07.136Z,1.30
2022-09-12T12:18:40.092Z,1.40
2022-09-12T12:21:32.249Z,1.90
2022-09-12T12:24:09.303Z,2.30
2022-09-12T12:26:40.335Z,1.80
2022-09-12T12:29:17.342Z,2.10
2022-09-12T12:32:06.577Z,1.80
2022-09-12T12:34:42.949Z,2.20
2022-09-12T12:37:25.516Z,2.30
2022-09-12T12:40:01.567Z,1.80
2022-09-12T12:42:36.288Z,2.10
2022-09-12T12:45:24.438Z,1.80
2022-09-12T12:48:11.691Z,2.10
2022-09-12T12:50:40.062Z,2.70
2022-09-12T12:53:20.663Z,2.40
2022-09-12T12:55:52.697Z,1.80
2022-09-12T12:58:38.349Z,2.10
2022-09-12T13:01:17.170Z,1.80
2022-09-12T13:03:53.892Z,2.10
2022-09-12T13:06:38.394Z,2.00
2022-09-12T13:09:22.038Z,1.90
2022-09-12T13:12:00.868Z,1.80
2022-09-12T13:14:34.769Z,1.90
2022-09-12T13:17:07.998Z,1.80
2022-09-12T13:19:38.020Z,1.70
2022-09-12T13:22:08.856Z,2.00
2022-09-12T13:24:54.487Z,1.90
2022-09-12T13:27:25.680Z,1.70
2022-09-12T13:30:15.494Z,2.30
2022-09-12T13:32:44.417Z,1.80
2022-09-12T13:35:38.706Z,1.30
2022-09-12T13:38:24.372Z,1.60
2022-09-12T13:41:24.323Z,1.10
2022-09-12T13:43:53.263Z,1.90
2022-09-12T13:46:30.355Z,1.60
2022-09-12T13:49:01.977Z,2.00
2022-09-12T13:51:32.377Z,2.10
2022-09-12T13:54:05.211Z,1.80
2022-09-12T13:56:33.974Z,1.90
2022-09-12T13:59:03.173Z,1.90
2022-09-12T14:01:47.754Z,2.00
2022-09-12T14:04:41.103Z,1.80
2022-09-12T14:07:22.410Z,1.70
2022-09-12T14:09:56.775Z,1.40
2022-09-12T14:12:26.629Z,1.40
2022-09-12T14:14:55.563Z,2.30
2022-09-12T14:17:36.360Z,1.70
2022-09-12T14:20:16.284Z,2.30
2022-09-12T14:22:49.251Z,1.90
2022-09-12T14:25:29.761Z,1.70
2022-09-12T14:27:58.278Z,1.90
2022-09-12T14:30:33.067Z,2.00
2022-09-12T14:33:06.129Z,1.70
2022-09-12T14:35:34.655Z,1.60
2022-09-12T14:38:13.856Z,1.50
2022-09-12T14:40:48.763Z,1.50
2022-09-12T14:43:32.631Z,1.70
2022-09-12T14:46:20.718Z,1.50
2022-09-12T14:49:05.917Z,1.30
2022-09-12T14:51:51.681Z,1.80
2022-09-12T14:54:29.382Z,1.60
2022-09-12T14:57:01.035Z,1.40
2022-09-12T14:59:35.121Z,2.10
2022-09-12T15:02:21.394Z,1.60
2022-09-12T15:04:52.748Z,1.40
2022-09-12T15:07:31.766Z,1.70
2022-09-12T15:10:02.625Z,2.00
2022-09-12T15:12:33.322Z,1.90
2022-09-12T15:15:21.950Z,1.40
2022-09-12T15:17:50.099Z,1.60
2022-09-12T15:20:18.022Z,1.40
2022-09-12T15:22:46.094Z,2.00
2022-09-12T15:25:14.188Z,1.80
2022-09-12T15:27:42.511Z,2.00
2022-09-12T15:30:13.212Z,2.10
2022-09-12T15:32:43.714Z,1.60
2022-09-12T15:35:18.075Z,1.80
2022-09-12T15:37:46.097Z,2.30
2022-09-12T15:40:14.724Z,1.80
2022-09-12T15:42:43.381Z,1.90
2022-09-12T15:45:23.957Z,1.80
2022-09-12T15:47:52.126Z,1.60
2022-09-12T15:50:20.418Z,2.10
2022-09-12T15:52:48.619Z,2.30
2022-09-12T15:55:19.246Z,2.10
2022-09-12T15:57:47.216Z,1.80
2022-09-12T16:00:17.498Z,1.90
2022-09-12T16:02:47.532Z,2.00
2022-09-12T16:05:19.427Z,2.10
2022-09-12T16:07:47.695Z,1.90
2022-09-12T16:10:17.463Z,1.90
2022-09-12T16:12:46.312Z,2.00
2022-09-12T16:15:21.115Z,2.30
2022-09-12T16:17:50.580Z,2.00
2022-09-12T16:20:19.920Z,1.80
2022-09-12T16:22:48.724Z,2.00
2022-09-12T16:25:17.609Z,2.20
2022-09-12T16:27:48.679Z,2.00
2022-09-12T16:30:16.784Z,2.00
2022-09-12T16:32:44.771Z,2.10
2022-09-12T16:35:13.105Z,2.30
2022-09-12T16:37:41.407Z,2.50
2022-09-12T16:40:10.729Z,2.50
2022-09-12T16:42:43.545Z,2.30
2022-09-12T16:45:12.792Z,2.10
2022-09-12T16:47:41.009Z,2.60
2022-09-12T16:50:09.121Z,2.30
2022-09-12T16:52:37.024Z,2.30
2022-09-12T16:55:05.425Z,2.40
2022-09-12T16:57:33.294Z,2.10
2022-09-12T17:00:01.328Z,2.60
2022-09-12T17:02:29.285Z,2.70
2022-09-12T17:04:57.186Z,2.20
2022-09-12T17:07:25.169Z,2.60
2022-09-12T17:09:53.349Z,2.60
2022-09-12T17:12:21.319Z,2.40
2022-09-12T17:14:49.191Z,3.30
2022-09-12T17:17:17.331Z,2.60
2022-09-12T17:19:45.151Z,3.80
2022-09-12T17:22:13.122Z,2.70
2022-09-12T17:24:41.642Z,3.10
2022-09-12T17:27:09.715Z,2.70
2022-09-12T17:29:38.710Z,2.80
2022-09-12T17:32:06.690Z,3.10
2022-09-12T17:34:34.657Z,3.20
2022-09-12T17:37:02.964Z,2.90
2022-09-12T17:39:30.807Z,3.30
2022-09-12T17:41:59.154Z,3.70
2022-09-12T17:44:30.281Z,3.50
2022-09-12T17:46:58.141Z,3.50
2022-09-12T17:49:26.291Z,3.00
2022-09-12T17:51:56.298Z,3.20
2022-09-12T17:54:24.629Z,3.20
2022-09-12T17:56:52.601Z,3.00
2022-09-12T17:59:24.173Z,3.10
2022-09-12T18:02:10.740Z,3.60
2022-09-12T18:04:40.697Z,3.70
2022-09-12T18:07:08.714Z,3.70
2022-09-12T18:09:36.620Z,3.40
2022-09-12T18:12:05.850Z,4.20
2022-09-12T18:14:34.130Z,3.50
2022-09-12T18:17:02.191Z,3.00
2022-09-12T18:19:30.124Z,2.80
2022-09-12T18:21:58.521Z,2.80
2022-09-12T18:24:26.733Z,2.70
2022-09-12T18:26:58.439Z,2.90
2022-09-12T18:29:28.074Z,3.30
2022-09-12T18:31:56.419Z,3.70
2022-09-12T18:34:24.424Z,3.20
2022-09-12T18:36:55.097Z,2.90
2022-09-12T18:39:27.484Z,2.80
2022-09-12T18:41:56.246Z,3.40
2022-09-12T18:44:24.270Z,3.20
2022-09-12T18:46:52.428Z,2.30
2022-09-12T18:49:20.590Z,3.10
2022-09-12T18:51:48.443Z,3.40
2022-09-12T18:54:18.011Z,2.70
2022-09-12T18:56:46.090Z,2.90
2022-09-12T18:59:15.086Z,2.90
2022-09-12T19:01:43.960Z,2.60
2022-09-12T19:04:13.478Z,3.10
2022-09-12T19:06:44.508Z,3.20
2022-09-12T19:09:14.676Z,2.60
2022-09-12T19:11:48.991Z,2.50
2022-09-12T19:14:19.554Z,2.70
2022-09-12T19:16:47.413Z,2.70
2022-09-12T19:19:15.413Z,2.50
2022-09-12T19:21:43.266Z,2.70
2022-09-12T19:24:11.568Z,2.50
2022-09-12T19:26:39.619Z,2.50
2022-09-12T19:29:08.391Z,2.70
2022-09-12T19:31:36.275Z,2.50
2022-09-12T19:34:06.576Z,2.90
2022-09-12T19:36:50.161Z,2.70
2022-09-12T19:39:19.849Z,3.00
2022-09-12T19:41:48.606Z,2.60
2022-09-12T19:44:19.293Z,3.00
2022-09-12T19:46:47.514Z,3.20
2022-09-12T19:49:15.643Z,2.70
2022-09-12T19:51:44.039Z,3.10
2022-09-12T19:54:11.893Z,3.20
2022-09-12T19:56:39.752Z,2.70
2022-09-12T19:59:08.850Z,2.70
2022-09-12T20:01:37.646Z,2.70
2022-09-12T20:04:06.926Z,2.90
2022-09-12T20:06:35.122Z,2.40
2022-09-12T20:09:03.278Z,2.70
2022-09-12T20:11:31.510Z,2.80
2022-09-12T20:13:59.505Z,2.80
2022-09-12T20:16:29.658Z,2.50
2022-09-12T20:19:06.145Z,2.50
2022-09-12T20:21:36.181Z,2.70
2022-09-12T20:24:07.689Z,2.40
2022-09-12T20:26:36.172Z,2.40
2022-09-12T20:29:05.963Z,2.20
2022-09-12T20:31:35.254Z,2.20
2022-09-12T20:34:05.230Z,2.40
2022-09-12T20:36:33.994Z,2.60
2022-09-12T20:39:04.035Z,2.60
2022-09-12T20:41:36.158Z,2.70
2022-09-12T20:44:04.462Z,2.70
2022-09-12T20:46:32.323Z,2.50
2022-09-12T20:49:00.370Z,2.70
2022-09-12T20:51:29.760Z,2.60
2022-09-12T20:53:59.861Z,2.50
2022-09-12T20:56:29.063Z,2.90
2022-09-12T20:58:58.137Z,2.70
2022-09-12T21:01:27.814Z,3.10
2022-09-12T21:03:56.057Z,2.50
2022-09-12T21:06:24.239Z,2.70
2022-09-12T21:08:52.838Z,3.00
2022-09-12T21:11:21.337Z,2.80
2022-09-12T21:13:49.632Z,2.10
2022-09-12T21:16:21.078Z,2.30
2022-09-12T21:18:57.680Z,2.40
2022-09-12T21:21:26.825Z,2.60
2022-09-12T21:23:58.795Z,2.40
2022-09-12T21:26:27.363Z,2.70
2022-09-12T21:28:55.859Z,2.40
2022-09-12T21:31:24.987Z,2.70
2022-09-12T21:33:53.078Z,2.80
2022-09-12T21:36:21.364Z,2.30
2022-09-12T21:38:49.478Z,2.50
2022-09-12T21:41:18.546Z,2.80
2022-09-12T21:43:46.690Z,2.60
2022-09-12T21:46:14.937Z,2.60
2022-09-12T21:48:43.655Z,2.40
2022-09-12T21:51:12.129Z,2.90
2022-09-12T21:53:40.179Z,2.50
2022-09-12T21:56:09.085Z,2.60
2022-09-12T21:58:38.119Z,2.60
2022-09-12T22:01:09.715Z,2.80
2022-09-12T22:03:38.036Z,2.90
2022-09-12T22:06:07.565Z,2.40
2022-09-12T22:08:37.720Z,2.90
2022-09-12T22:11:09.779Z,2.10
2022-09-12T22:13:39.943Z,2.60
2022-09-12T22:16:08.109Z,2.30
2022-09-12T22:18:37.632Z,2.50
2022-09-12T22:21:09.331Z,2.50
2022-09-12T22:23:56.079Z,3.80
2022-09-12T22:26:24.633Z,2.50
2022-09-12T22:28:54.593Z,2.40
2022-09-12T22:31:23.365Z,2.50
2022-09-12T22:33:51.542Z,2.70
2022-09-12T22:36:19.415Z,2.40
2022-09-12T22:38:47.471Z,2.10
2022-09-12T22:41:15.846Z,2.10
2022-09-12T22:43:43.626Z,1.90
2022-09-12T22:46:12.696Z,1.80
2022-09-12T22:48:41.647Z,2.30
2022-09-12T22:51:11.053Z,2.20
2022-09-12T22:53:39.240Z,2.20
2022-09-12T22:56:08.322Z,2.30
2022-09-12T22:58:37.675Z,2.10
2022-09-12T23:01:06.502Z,2.30
2022-09-12T23:03:36.648Z,2.10
2022-09-12T23:06:05.657Z,2.30
2022-09-12T23:08:38.322Z,2.30
2022-09-12T23:11:11.974Z,2.50
2022-09-12T23:13:42.997Z,2.40
2022-09-12T23:16:16.312Z,2.20
2022-09-12T23:18:44.530Z,2.50
2022-09-12T23:21:14.434Z,2.30
2022-09-12T23:23:42.348Z,2.40
2022-09-12T23:26:17.357Z,2.10
2022-09-12T23:28:53.800Z,2.40
2022-09-12T23:31:24.649Z,2.50
2022-09-12T23:33:53.471Z,2.10
2022-09-12T23:36:22.483Z,1.90
2022-09-12T23:38:50.326Z,2.20
2022-09-12T23:41:19.078Z,1.90
2022-09-12T23:43:47.223Z,1.80
2022-09-12T23:46:17.017Z,2.20
2022-09-12T23:48:45.083Z,2.40
2022-09-12T23:51:13.737Z,2.50
2022-09-12T23:53:41.975Z,2.20
2022-09-12T23:56:10.290Z,2.60
2022-09-12T23:58:38.411Z,2.40
